createdAt,value
2022-12-04T00:04:16.666Z,84.81
2022-12-04T00:06:43.833Z,84.25
2022-12-04T00:09:12.791Z,84.40
2022-12-04T00:11:39.727Z,84.70
2022-12-04T00:14:07.574Z,84.96
2022-12-04T00:16:35.704Z,84.39
2022-12-04T00:19:03.311Z,84.94
2022-12-04T00:21:30.562Z,84.26
2022-12-04T00:23:57.494Z,84.18
2022-12-04T00:26:28.734Z,84.53
2022-12-04T00:28:55.974Z,84.17
2022-12-04T00:31:26.566Z,84.40
2022-12-04T00:33:54.389Z,84.34
2022-12-04T00:36:25.201Z,84.54
2022-12-04T00:38:52.893Z,84.68
2022-12-04T00:41:23.065Z,84.67
2022-12-04T00:43:52.453Z,84.68
2022-12-04T00:46:20.196Z,84.97
2022-12-04T00:48:47.567Z,84.77
2022-12-04T00:51:17.544Z,84.73
2022-12-04T00:53:45.662Z,85.04
2022-12-04T00:56:15.405Z,84.82
2022-12-04T00:58:43.902Z,84.90
2022-12-04T01:01:15.693Z,84.86
2022-12-04T01:03:43.259Z,84.26
2022-12-04T01:06:20.142Z,85.24
2022-12-04T01:08:48.515Z,85.05
2022-12-04T01:11:17.028Z,84.63
2022-12-04T01:13:44.192Z,84.03
2022-12-04T01:16:19.781Z,84.37
2022-12-04T01:18:47.506Z,84.13
2022-12-04T01:21:14.788Z,84.51
2022-12-04T01:23:41.867Z,84.56
2022-12-04T01:26:09.102Z,84.19
2022-12-04T01:28:36.799Z,83.93
2022-12-04T01:31:07.609Z,84.69
2022-12-04T01:33:38.008Z,84.74
2022-12-04T01:36:09.564Z,84.44
2022-12-04T01:38:37.223Z,85.28
2022-12-04T01:41:05.470Z,84.47
2022-12-04T01:43:36.050Z,84.82
2022-12-04T01:46:04.517Z,84.57
2022-12-04T01:48:37.426Z,84.50
2022-12-04T01:51:10.892Z,84.96
2022-12-04T01:53:44.162Z,84.93
2022-12-04T01:56:11.359Z,84.24
2022-12-04T01:58:46.120Z,83.87
2022-12-04T02:01:13.203Z,84.09
2022-12-04T02:03:41.678Z,84.04
2022-12-04T02:06:08.504Z,84.37
2022-12-04T02:08:39.447Z,84.25
2022-12-04T02:11:21.570Z,84.47
2022-12-04T02:14:02.362Z,84.14
2022-12-04T02:16:41.476Z,84.03
2022-12-04T02:19:42.740Z,84.24
2022-12-04T02:22:29.652Z,83.57
2022-12-04T02:25:13.619Z,84.23
2022-12-04T02:28:09.078Z,83.96
2022-12-04T02:30:41.582Z,84.19
2022-12-04T02:33:19.176Z,83.97
2022-12-04T02:35:55.184Z,84.23
2022-12-04T02:38:32.463Z,84.16
2022-12-04T02:41:11.104Z,84.00
2022-12-04T02:43:45.525Z,84.60
2022-12-04T02:46:20.417Z,84.38
2022-12-04T02:48:52.716Z,84.28
2022-12-04T02:51:25.983Z,84.56
2022-12-04T02:53:59.492Z,83.96
2022-12-04T02:56:32.402Z,84.18
2022-12-04T02:59:07.191Z,83.72
2022-12-04T03:01:41.503Z,84.05
2022-12-04T03:04:16.000Z,84.71
2022-12-04T03:06:49.314Z,84.88
2022-12-04T03:09:22.166Z,84.69
2022-12-04T03:11:58.070Z,84.24
2022-12-04T03:14:33.790Z,84.78
2022-12-04T03:17:08.661Z,84.62
2022-12-04T03:19:43.704Z,84.53
2022-12-04T03:22:17.547Z,85.02
2022-12-04T03:24:51.785Z,84.90
2022-12-04T03:27:31.166Z,84.77
2022-12-04T03:30:07.159Z,85.23
2022-12-04T03:32:43.035Z,85.07
2022-12-04T03:35:19.105Z,85.16
2022-12-04T03:37:57.672Z,85.15
2022-12-04T03:40:35.782Z,85.07
2022-12-04T03:43:11.961Z,85.10
2022-12-04T03:45:48.504Z,85.31
2022-12-04T03:48:24.172Z,85.03
2022-12-04T03:51:00.391Z,85.20
2022-12-04T03:53:36.213Z,84.78
2022-12-04T03:56:13.379Z,85.38
2022-12-04T03:58:51.020Z,85.11
2022-12-04T04:01:26.930Z,85.17
2022-12-04T04:03:59.141Z,85.06
2022-12-04T04:06:32.502Z,85.45
2022-12-04T04:09:08.739Z,86.28
2022-12-04T04:11:43.948Z,85.68
2022-12-04T04:14:22.390Z,85.70
2022-12-04T04:16:59.912Z,84.78
2022-12-04T04:19:32.675Z,84.86
2022-12-04T04:22:04.563Z,85.34
2022-12-04T04:24:40.506Z,85.46
2022-12-04T04:27:07.692Z,85.80
2022-12-04T04:29:35.415Z,85.04
2022-12-04T04:32:14.159Z,85.10
2022-12-04T04:34:56.309Z,84.75
2022-12-04T04:37:33.051Z,84.66
2022-12-04T04:40:12.015Z,85.33
2022-12-04T04:42:49.448Z,86.06
2022-12-04T04:45:23.161Z,85.37
2022-12-04T04:48:00.513Z,85.50
2022-12-04T04:50:29.283Z,85.39
2022-12-04T04:53:05.250Z,85.25
2022-12-04T04:55:35.906Z,85.39
2022-12-04T04:58:09.249Z,85.22
2022-12-04T05:00:38.398Z,85.80
2022-12-04T05:03:07.191Z,85.79
2022-12-04T05:05:34.133Z,86.12
2022-12-04T05:08:01.273Z,85.04
2022-12-04T05:10:28.419Z,85.68
2022-12-04T05:12:55.642Z,85.29
2022-12-04T05:15:22.538Z,85.81
2022-12-04T05:17:49.504Z,86.26
2022-12-04T05:20:18.247Z,86.01
2022-12-04T05:22:45.291Z,86.30
2022-12-04T05:25:12.601Z,85.86
2022-12-04T05:27:39.565Z,86.63
2022-12-04T05:30:08.400Z,86.85
2022-12-04T05:32:35.299Z,85.61
2022-12-04T05:35:07.697Z,85.89
2022-12-04T05:37:40.724Z,86.05
2022-12-04T05:40:09.093Z,85.45
2022-12-04T05:42:36.102Z,86.26
2022-12-04T05:45:03.434Z,85.62
2022-12-04T05:47:30.677Z,85.92
2022-12-04T05:49:57.764Z,85.70
2022-12-04T05:52:24.783Z,85.97
2022-12-04T05:54:53.009Z,85.79
2022-12-04T05:57:20.173Z,85.33
2022-12-04T05:59:47.662Z,85.67
2022-12-04T06:02:14.611Z,85.73
2022-12-04T06:04:41.572Z,85.13
2022-12-04T06:07:09.996Z,85.88
2022-12-04T06:09:38.290Z,86.37
2022-12-04T06:12:06.952Z,86.40
2022-12-04T06:14:39.258Z,85.79
2022-12-04T06:17:07.204Z,85.96
2022-12-04T06:19:34.067Z,85.99
2022-12-04T06:22:01.060Z,86.47
2022-12-04T06:24:27.997Z,86.27
2022-12-04T06:27:26.933Z,84.95
2022-12-04T06:29:46.160Z,85.78
2022-12-04T06:32:17.784Z,85.97
2022-12-04T06:34:46.677Z,85.34
2022-12-04T06:37:16.500Z,86.58
2022-12-04T06:39:43.695Z,85.67
2022-12-04T06:42:11.260Z,86.27
2022-12-04T06:44:38.348Z,86.08
2022-12-04T06:47:06.516Z,86.23
2022-12-04T06:49:33.740Z,86.64
2022-12-04T06:52:00.574Z,86.49
2022-12-04T06:54:27.876Z,86.07
2022-12-04T06:56:54.821Z,87.08
2022-12-04T06:59:22.281Z,85.93
2022-12-04T07:01:49.244Z,86.29
2022-12-04T07:04:17.530Z,87.58
2022-12-04T07:06:44.522Z,85.94
2022-12-04T07:09:15.472Z,86.02
2022-12-04T07:11:44.431Z,85.75
2022-12-04T07:14:13.315Z,86.24
2022-12-04T07:16:42.653Z,85.97
2022-12-04T07:19:11.478Z,86.30
2022-12-04T07:21:41.339Z,86.16
2022-12-04T07:24:11.641Z,86.36
2022-12-04T07:26:38.910Z,85.75
2022-12-04T07:29:05.756Z,86.70
2022-12-04T07:31:32.984Z,86.00
2022-12-04T07:33:59.900Z,86.31
2022-12-04T07:36:29.455Z,85.80
2022-12-04T07:43:18.336Z,86.49
2022-12-04T07:45:45.855Z,86.86
2022-12-04T07:51:21.382Z,85.96
2022-12-04T07:53:50.270Z,85.74
2022-12-04T07:56:17.979Z,86.18
2022-12-04T07:58:49.330Z,86.18
2022-12-04T08:01:20.380Z,86.54
2022-12-04T08:03:50.318Z,86.03
2022-12-04T08:06:20.252Z,85.38
2022-12-04T08:08:48.273Z,86.13
2022-12-04T08:11:19.103Z,85.53
2022-12-04T08:13:46.272Z,86.27
2022-12-04T08:16:15.741Z,84.60
2022-12-04T08:18:42.867Z,83.28
2022-12-04T08:21:12.167Z,84.05
2022-12-04T08:23:42.278Z,83.26
2022-12-04T08:26:11.274Z,83.74
2022-12-04T08:28:39.565Z,83.85
2022-12-04T08:31:10.297Z,84.10
2022-12-04T08:33:38.973Z,82.60
2022-12-04T08:36:07.307Z,83.22
2022-12-04T08:38:34.547Z,82.27
2022-12-04T08:41:01.778Z,81.79
2022-12-04T08:43:29.419Z,82.65
2022-12-04T08:45:57.348Z,82.13
2022-12-04T08:48:24.446Z,82.51
2022-12-04T08:50:53.754Z,83.51
2022-12-04T08:53:20.649Z,82.77
2022-12-04T08:55:47.927Z,83.62
2022-12-04T08:58:14.773Z,82.53
2022-12-04T09:00:41.752Z,82.92
2022-12-04T09:03:12.955Z,83.38
2022-12-04T09:05:40.143Z,83.78
2022-12-04T09:08:08.658Z,84.97
2022-12-04T09:10:36.199Z,84.14
2022-12-04T09:13:03.240Z,84.13
2022-12-04T09:15:30.957Z,84.70
2022-12-04T09:17:58.449Z,85.48
2022-12-04T09:20:25.786Z,84.81
2022-12-04T09:23:04.054Z,85.81
2022-12-04T09:25:36.421Z,85.29
2022-12-04T09:28:03.823Z,84.92
2022-12-04T09:30:30.750Z,85.60
2022-12-04T09:32:57.678Z,85.45
2022-12-04T09:35:24.561Z,85.05
2022-12-04T09:37:51.439Z,85.08
2022-12-04T09:40:32.077Z,85.29
2022-12-04T09:43:24.429Z,85.62
2022-12-04T09:45:58.642Z,85.46
2022-12-04T09:48:35.863Z,85.44
2022-12-04T09:51:06.882Z,84.90
2022-12-04T09:53:45.416Z,84.72
2022-12-04T09:56:17.743Z,85.26
2022-12-04T09:58:53.585Z,85.02
2022-12-04T10:01:24.869Z,84.80
2022-12-04T10:03:55.172Z,85.13
2022-12-04T10:06:28.893Z,84.70
2022-12-04T10:09:03.834Z,84.79
2022-12-04T10:11:48.665Z,84.66
2022-12-04T10:14:48.582Z,85.11
2022-12-04T10:17:39.783Z,84.10
2022-12-04T10:20:34.876Z,84.34
2022-12-04T10:23:17.924Z,84.94
2022-12-04T10:25:44.811Z,83.98
2022-12-04T10:28:24.098Z,84.08
2022-12-04T10:30:57.255Z,84.38
2022-12-04T10:33:37.554Z,84.53
2022-12-04T10:36:07.044Z,83.75
2022-12-04T10:38:45.498Z,83.21
2022-12-04T10:41:24.723Z,83.67
2022-12-04T10:43:52.488Z,83.44
2022-12-04T10:46:26.855Z,83.01
2022-12-04T10:48:59.391Z,82.67
2022-12-04T10:51:26.762Z,82.60
2022-12-04T10:53:56.868Z,82.44
2022-12-04T10:56:25.778Z,82.26
2022-12-04T10:58:59.623Z,83.49
2022-12-04T11:01:31.256Z,83.57
2022-12-04T11:04:05.786Z,83.33
2022-12-04T11:06:35.328Z,83.18
2022-12-04T11:09:04.355Z,82.82
2022-12-04T11:11:34.619Z,82.52
2022-12-04T11:14:13.736Z,82.29
2022-12-04T11:16:45.243Z,81.94
2022-12-04T11:19:22.684Z,81.89
2022-12-04T11:21:50.469Z,81.74
2022-12-04T11:24:23.052Z,81.49
2022-12-04T11:26:52.153Z,81.69
2022-12-04T11:29:26.227Z,81.32
2022-12-04T11:31:56.466Z,81.32
2022-12-04T11:34:34.935Z,81.18
2022-12-04T11:37:03.238Z,80.99
2022-12-04T11:39:36.575Z,81.05
2022-12-04T11:42:15.370Z,79.82
2022-12-04T11:44:51.676Z,80.54
2022-12-04T11:47:23.049Z,80.71
2022-12-04T11:50:06.986Z,80.47
2022-12-04T11:52:55.341Z,80.68
2022-12-04T11:55:30.057Z,80.95
2022-12-04T11:58:27.245Z,81.04
2022-12-04T12:01:20.376Z,80.97
2022-12-04T12:04:19.436Z,80.98
2022-12-04T12:07:08.778Z,80.86
2022-12-04T12:09:51.609Z,80.72
2022-12-04T12:12:35.937Z,80.65
2022-12-04T12:15:17.071Z,80.91
2022-12-04T12:17:53.722Z,81.06
2022-12-04T12:20:32.772Z,80.71
2022-12-04T12:23:23.262Z,81.04
2022-12-04T12:26:00.195Z,81.46
2022-12-04T12:28:48.092Z,81.71
2022-12-04T12:31:53.782Z,81.91
2022-12-04T12:34:37.447Z,81.98
2022-12-04T12:37:20.977Z,82.02
2022-12-04T12:39:57.454Z,82.22
2022-12-04T12:42:32.572Z,82.54
2022-12-04T12:45:12.240Z,82.41
2022-12-04T12:47:45.426Z,82.27
2022-12-04T12:50:21.001Z,82.38
2022-12-04T12:52:59.622Z,82.32
2022-12-04T12:55:36.416Z,82.98
2022-12-04T12:58:12.806Z,82.53
2022-12-04T13:00:50.447Z,82.36
2022-12-04T13:03:32.661Z,82.96
2022-12-04T13:06:06.296Z,82.80
2022-12-04T13:08:45.020Z,82.92
2022-12-04T13:11:21.625Z,82.64
2022-12-04T13:13:54.016Z,82.88
2022-12-04T13:16:26.815Z,82.53
2022-12-04T13:19:09.938Z,83.36
2022-12-04T13:21:46.630Z,82.81
2022-12-04T13:25:06.246Z,82.87
2022-12-04T13:27:50.051Z,82.86
2022-12-04T13:30:23.121Z,83.07
2022-12-04T13:33:49.913Z,83.32
2022-12-04T13:36:38.245Z,83.29
2022-12-04T13:39:48.553Z,83.32
2022-12-04T13:42:25.699Z,83.06
2022-12-04T13:44:56.492Z,83.42
2022-12-04T13:47:30.614Z,83.59
2022-12-04T13:50:28.860Z,83.39
2022-12-04T13:52:56.773Z,85.55
2022-12-04T13:55:30.215Z,83.84
2022-12-04T13:58:00.978Z,83.59
2022-12-04T14:00:32.613Z,83.30
2022-12-04T14:03:04.761Z,83.07
2022-12-04T14:05:41.366Z,82.55
2022-12-04T14:08:25.676Z,82.49
2022-12-04T14:11:07.910Z,83.42
2022-12-04T14:13:47.420Z,83.30
2022-12-04T14:16:22.884Z,83.30
2022-12-04T14:18:54.054Z,83.06
2022-12-04T14:21:21.630Z,83.48
2022-12-04T14:23:49.611Z,83.71
2022-12-04T14:26:37.248Z,83.90
2022-12-04T14:29:38.217Z,84.34
2022-12-04T14:32:13.560Z,84.61
2022-12-04T14:34:41.202Z,84.53
2022-12-04T14:37:25.093Z,84.79
2022-12-04T14:39:53.748Z,85.79
2022-12-04T14:42:26.945Z,85.88
2022-12-04T14:44:57.296Z,85.91
2022-12-04T14:47:42.455Z,86.24
2022-12-04T14:50:29.497Z,86.56
2022-12-04T14:53:12.511Z,86.79
2022-12-04T14:55:55.576Z,86.76
2022-12-04T14:58:25.207Z,87.03
2022-12-04T15:00:54.651Z,87.21
2022-12-04T15:03:22.932Z,87.40
2022-12-04T15:05:50.848Z,87.51
2022-12-04T15:08:18.216Z,87.53
2022-12-04T15:10:50.504Z,87.52
2022-12-04T15:13:31.970Z,87.42
2022-12-04T15:16:10.459Z,87.76
2022-12-04T15:18:39.728Z,87.72
2022-12-04T15:21:11.041Z,87.81
2022-12-04T15:23:41.191Z,87.78
2022-12-04T15:26:16.109Z,87.61
2022-12-04T15:28:50.493Z,87.68
2022-12-04T15:31:23.991Z,87.83
2022-12-04T15:33:56.489Z,88.16
2022-12-04T15:36:44.536Z,88.07
2022-12-04T15:39:22.723Z,88.54
2022-12-04T15:41:49.713Z,88.49
2022-12-04T15:44:31.204Z,88.76
2022-12-04T15:47:02.370Z,88.98
2022-12-04T15:49:31.878Z,89.38
2022-12-04T15:52:13.570Z,90.72
2022-12-04T15:54:45.992Z,91.28
2022-12-04T15:57:26.748Z,91.79
2022-12-04T15:59:57.051Z,91.77
2022-12-04T16:02:29.550Z,91.17
2022-12-04T16:04:56.983Z,91.25
2022-12-04T16:07:27.302Z,91.54
2022-12-04T16:10:02.855Z,91.36
2022-12-04T16:12:32.517Z,91.36
2022-12-04T16:15:01.663Z,90.89
2022-12-04T16:17:31.921Z,90.79
2022-12-04T16:20:00.802Z,90.68
2022-12-04T16:22:27.727Z,90.58
2022-12-04T16:24:55.020Z,90.75
2022-12-04T16:27:24.605Z,90.60
2022-12-04T16:29:52.878Z,90.36
2022-12-04T16:32:28.711Z,90.94
2022-12-04T16:34:55.826Z,90.71
2022-12-04T16:37:24.862Z,90.81
2022-12-04T16:39:51.615Z,90.89
2022-12-04T16:42:22.658Z,91.40
2022-12-04T16:44:50.289Z,91.57
2022-12-04T16:47:18.054Z,92.08
2022-12-04T16:49:49.863Z,92.26
2022-12-04T16:52:17.779Z,93.25
2022-12-04T16:54:45.046Z,93.03
2022-12-04T16:57:12.062Z,93.61
2022-12-04T16:59:38.809Z,93.52
2022-12-04T17:02:17.487Z,93.61
2022-12-04T17:04:45.787Z,93.26
2022-12-04T17:07:12.533Z,93.11
2022-12-04T17:09:39.494Z,92.79
2022-12-04T17:12:06.463Z,92.63
2022-12-04T17:14:33.290Z,92.44
2022-12-04T17:17:00.548Z,92.42
2022-12-04T17:19:28.131Z,92.45
2022-12-04T17:21:56.229Z,92.52
2022-12-04T17:24:23.300Z,92.60
2022-12-04T17:26:50.115Z,92.38
2022-12-04T17:29:16.905Z,92.46
2022-12-04T17:31:43.662Z,92.36
2022-12-04T17:34:10.588Z,92.29
2022-12-04T17:36:37.366Z,92.49
2022-12-04T17:39:05.548Z,92.54
2022-12-04T17:41:32.329Z,92.47
2022-12-04T17:44:00.132Z,93.47
2022-12-04T17:46:27.632Z,93.75
2022-12-04T17:48:57.173Z,93.89
2022-12-04T17:51:25.203Z,93.66
2022-12-04T17:53:52.438Z,93.35
2022-12-04T17:56:23.312Z,93.53
2022-12-04T17:58:51.129Z,93.74
2022-12-04T18:01:21.727Z,94.01
2022-12-04T18:03:51.653Z,94.77
2022-12-04T18:06:22.420Z,94.82
2022-12-04T18:08:50.516Z,95.06
2022-12-04T18:11:18.715Z,94.70
2022-12-04T18:13:47.825Z,94.91
2022-12-04T18:16:14.910Z,94.65
2022-12-04T18:18:42.218Z,95.06
2022-12-04T18:21:11.631Z,94.88
2022-12-04T18:23:40.636Z,96.09
2022-12-04T18:26:07.684Z,96.17
2022-12-04T18:28:34.762Z,96.61
2022-12-04T18:31:04.541Z,96.49
2022-12-04T18:33:32.436Z,96.69
2022-12-04T18:35:59.942Z,96.39
2022-12-04T18:38:29.805Z,95.86
2022-12-04T18:41:01.826Z,95.85
2022-12-04T18:43:29.214Z,95.33
2022-12-04T18:46:07.673Z,95.31
2022-12-04T18:48:36.374Z,94.72
2022-12-04T18:51:15.367Z,94.82
2022-12-04T18:53:42.770Z,94.47
2022-12-04T18:56:09.903Z,94.25
2022-12-04T18:58:36.739Z,94.18
2022-12-04T19:01:06.553Z,93.74
2022-12-04T19:03:34.849Z,93.36
2022-12-04T19:06:02.963Z,93.58
2022-12-04T19:08:33.767Z,93.15
2022-12-04T19:11:06.829Z,92.99
2022-12-04T19:13:34.794Z,92.70
2022-12-04T19:16:02.701Z,92.54
2022-12-04T19:18:31.658Z,92.77
2022-12-04T19:20:58.790Z,92.76
2022-12-04T19:23:25.659Z,92.51
2022-12-04T19:25:57.044Z,92.62
2022-12-04T19:28:25.620Z,92.53
2022-12-04T19:30:52.465Z,92.69
2022-12-04T19:33:19.474Z,92.38
2022-12-04T19:35:59.189Z,92.50
2022-12-04T19:38:26.674Z,92.68
2022-12-04T19:41:03.854Z,92.42
2022-12-04T19:43:30.723Z,92.34
2022-12-04T19:45:57.814Z,92.18
2022-12-04T19:48:24.950Z,92.16
2022-12-04T19:50:51.828Z,92.40
2022-12-04T19:53:20.204Z,92.10
2022-12-04T19:55:47.013Z,92.41
2022-12-04T19:58:13.911Z,92.40
2022-12-04T20:00:40.989Z,92.43
2022-12-04T20:03:07.836Z,92.26
2022-12-04T20:05:36.774Z,92.40
2022-12-04T20:10:34.282Z,92.22
2022-12-04T20:13:01.208Z,92.42
2022-12-04T20:15:27.987Z,92.28
2022-12-04T20:17:54.840Z,92.90
2022-12-04T20:20:21.741Z,93.04
2022-12-04T20:22:48.760Z,92.91
2022-12-04T20:25:15.696Z,93.09
2022-12-04T20:27:44.143Z,93.02
2022-12-04T20:30:11.488Z,93.20
2022-12-04T20:32:38.417Z,92.89
2022-12-04T20:35:06.731Z,92.80
2022-12-04T20:37:33.780Z,93.09
2022-12-04T20:40:00.631Z,93.11
2022-12-04T20:42:33.272Z,92.92
2022-12-04T20:45:02.355Z,92.97
2022-12-04T20:47:30.203Z,93.30
2022-12-04T20:49:57.188Z,93.03
2022-12-04T20:52:24.535Z,93.01
2022-12-04T20:54:51.525Z,93.00
2022-12-04T20:57:18.309Z,92.85
2022-12-04T20:59:45.325Z,92.53
2022-12-04T21:02:13.560Z,92.96
2022-12-04T21:04:40.736Z,92.50
2022-12-04T21:07:07.486Z,92.58
2022-12-04T21:09:34.303Z,92.44
2022-12-04T21:12:01.436Z,92.26
2022-12-04T21:14:31.680Z,92.35
2022-12-04T21:16:59.936Z,92.45
2022-12-04T21:19:28.344Z,92.31
2022-12-04T21:21:55.428Z,92.19
2022-12-04T21:24:24.581Z,92.13
2022-12-04T21:26:51.474Z,92.14
2022-12-04T21:29:18.532Z,91.94
2022-12-04T21:31:45.657Z,91.83
2022-12-04T21:34:16.628Z,92.19
2022-12-04T21:36:45.814Z,91.82
2022-12-04T21:39:14.080Z,91.70
2022-12-04T21:41:41.619Z,91.76
2022-12-04T21:44:12.010Z,91.65
2022-12-04T21:46:39.619Z,91.88
2022-12-04T21:49:07.195Z,92.06
2022-12-04T21:54:23.264Z,92.14
2022-12-04T21:56:50.046Z,91.93
2022-12-04T21:59:16.908Z,91.79
2022-12-04T22:01:44.262Z,91.80
2022-12-04T22:04:11.116Z,92.02
2022-12-04T22:06:38.046Z,91.66
2022-12-04T22:09:09.096Z,91.84
2022-12-04T22:11:38.449Z,91.88
2022-12-04T22:14:05.401Z,92.00
2022-12-04T22:16:36.911Z,92.00
2022-12-04T22:19:06.802Z,92.03
2022-12-04T22:21:33.640Z,91.82
2022-12-04T22:24:03.648Z,91.90
2022-12-04T22:26:32.240Z,91.78
2022-12-04T22:29:00.655Z,91.82
2022-12-04T22:31:30.515Z,91.45
2022-12-04T22:34:00.524Z,91.73
2022-12-04T22:36:31.205Z,91.40
2022-12-04T22:39:09.391Z,91.75
2022-12-04T22:41:38.073Z,91.46
2022-12-04T22:44:06.378Z,91.72
2022-12-04T22:46:33.872Z,91.50
2022-12-04T22:49:00.773Z,91.28
2022-12-04T22:51:28.397Z,91.89
2022-12-04T22:53:57.930Z,91.61
2022-12-04T22:56:28.770Z,91.72
2022-12-04T22:58:56.686Z,92.00
2022-12-04T23:01:27.777Z,92.03
2022-12-04T23:03:55.406Z,91.98
2022-12-04T23:06:25.830Z,91.73
2022-12-04T23:08:55.454Z,91.97
2022-12-04T23:11:24.770Z,91.86
2022-12-04T23:13:53.923Z,92.02
2022-12-04T23:16:23.389Z,92.21
2022-12-04T23:18:52.508Z,92.15
2022-12-04T23:21:21.999Z,92.03
2022-12-04T23:23:51.872Z,92.11
2022-12-04T23:26:22.921Z,92.11
2022-12-04T23:28:50.369Z,91.91
2022-12-04T23:31:17.782Z,91.70
2022-12-04T23:33:45.224Z,91.74
2022-12-04T23:36:15.405Z,91.80
2022-12-04T23:38:44.063Z,91.54
2022-12-04T23:41:14.467Z,91.55
2022-12-04T23:43:42.966Z,91.58
2022-12-04T23:46:12.834Z,91.35
2022-12-04T23:48:41.955Z,91.52
2022-12-04T23:51:11.301Z,91.31
2022-12-04T23:53:40.138Z,91.12
2022-12-04T23:56:11.951Z,90.87
2022-12-04T23:58:40.594Z,90.83
